sensor_id;sensor_type;location;lat;lon;timestamp;temperature;humidity
9486;DHT22;4781;48.776;9.200;2023-08-07T00:00:09;12.10;99.90
9486;DHT22;4781;48.776;9.200;2023-08-07T00:02:38;12.20;99.90
9486;DHT22;4781;48.776;9.200;2023-08-07T00:05:07;12.20;99.90
9486;DHT22;4781;48.776;9.200;2023-08-07T00:07:35;12.20;99.90
9486;DHT22;4781;48.776;9.200;2023-08-07T00:10:04;12.20;99.90
9486;DHT22;4781;48.776;9.200;2023-08-07T00:12:33;12.20;99.90
9486;DHT22;4781;48.776;9.200;2023-08-07T00:15:02;12.10;99.90
9486;DHT22;4781;48.776;9.200;2023-08-07T00:17:31;12.10;99.90
9486;DHT22;4781;48.776;9.200;2023-08-07T00:19:59;12.10;99.90
9486;DHT22;4781;48.776;9.200;2023-08-07T00:22:28;12.10;99.90
9486;DHT22;4781;48.776;9.200;2023-08-07T00:24:56;12.10;99.90
9486;DHT22;4781;48.776;9.200;2023-08-07T00:27:25;12.10;99.90
9486;DHT22;4781;48.776;9.200;2023-08-07T00:29:53;12.10;99.90
9486;DHT22;4781;48.776;9.200;2023-08-07T00:32:22;12.10;99.90
9486;DHT22;4781;48.776;9.200;2023-08-07T00:34:50;12.10;99.90
9486;DHT22;4781;48.776;9.200;2023-08-07T00:37:18;12.10;99.90
9486;DHT22;4781;48.776;9.200;2023-08-07T00:39:47;12.10;99.90
9486;DHT22;4781;48.776;9.200;2023-08-07T00:42:15;12.10;99.90
9486;DHT22;4781;48.776;9.200;2023-08-07T00:44:44;12.10;99.90
9486;DHT22;4781;48.776;9.200;2023-08-07T00:47:12;12.10;99.90
9486;DHT22;4781;48.776;9.200;2023-08-07T00:49:41;12.10;99.90
9486;DHT22;4781;48.776;9.200;2023-08-07T00:52:14;12.10;99.90
9486;DHT22;4781;48.776;9.200;2023-08-07T00:54:40;12.10;99.90
9486;DHT22;4781;48.776;9.200;2023-08-07T00:57:12;12.10;99.90
9486;DHT22;4781;48.776;9.200;2023-08-07T00:59:43;12.20;99.90
9486;DHT22;4781;48.776;9.200;2023-08-07T01:02:13;12.20;99.90
9486;DHT22;4781;48.776;9.200;2023-08-07T01:04:41;12.20;99.90
9486;DHT22;4781;48.776;9.200;2023-08-07T01:07:10;12.10;99.90
9486;DHT22;4781;48.776;9.200;2023-08-07T01:09:38;12.10;99.90
9486;DHT22;4781;48.776;9.200;2023-08-07T01:12:23;12.10;99.90
9486;DHT22;4781;48.776;9.200;2023-08-07T01:14:55;12.20;99.90
9486;DHT22;4781;48.776;9.200;2023-08-07T01:17:39;12.10;99.90
9486;DHT22;4781;48.776;9.200;2023-08-07T01:20:09;12.20;99.90
9486;DHT22;4781;48.776;9.200;2023-08-07T01:22:38;12.10;99.90
9486;DHT22;4781;48.776;9.200;2023-08-07T01:25:07;12.10;99.90
9486;DHT22;4781;48.776;9.200;2023-08-07T01:27:37;12.10;99.90
9486;DHT22;4781;48.776;9.200;2023-08-07T01:30:33;12.20;99.90
9486;DHT22;4781;48.776;9.200;2023-08-07T01:33:16;12.10;99.90
9486;DHT22;4781;48.776;9.200;2023-08-07T01:35:55;12.20;99.90
9486;DHT22;4781;48.776;9.200;2023-08-07T01:38:26;12.20;99.90
9486;DHT22;4781;48.776;9.200;2023-08-07T01:40:56;12.20;99.90
9486;DHT22;4781;48.776;9.200;2023-08-07T01:43:25;12.20;99.90
9486;DHT22;4781;48.776;9.200;2023-08-07T01:45:54;12.20;99.90
9486;DHT22;4781;48.776;9.200;2023-08-07T01:48:23;12.20;99.90
9486;DHT22;4781;48.776;9.200;2023-08-07T01:50:53;12.20;99.90
9486;DHT22;4781;48.776;9.200;2023-08-07T01:53:22;12.20;99.90
9486;DHT22;4781;48.776;9.200;2023-08-07T01:55:50;12.20;99.90
9486;DHT22;4781;48.776;9.200;2023-08-07T01:58:18;12.30;99.90
9486;DHT22;4781;48.776;9.200;2023-08-07T02:00:47;12.20;99.90
9486;DHT22;4781;48.776;9.200;2023-08-07T02:03:15;12.20;99.90
9486;DHT22;4781;48.776;9.200;2023-08-07T02:05:45;12.30;99.90
9486;DHT22;4781;48.776;9.200;2023-08-07T02:08:14;12.20;99.90
9486;DHT22;4781;48.776;9.200;2023-08-07T02:10:43;12.20;99.90
9486;DHT22;4781;48.776;9.200;2023-08-07T02:13:11;12.20;99.90
9486;DHT22;4781;48.776;9.200;2023-08-07T02:15:40;12.30;99.90
9486;DHT22;4781;48.776;9.200;2023-08-07T02:18:08;12.20;99.90
9486;DHT22;4781;48.776;9.200;2023-08-07T02:20:37;12.20;99.90
9486;DHT22;4781;48.776;9.200;2023-08-07T02:23:05;12.20;99.90
9486;DHT22;4781;48.776;9.200;2023-08-07T02:25:34;12.20;99.90
9486;DHT22;4781;48.776;9.200;2023-08-07T02:28:03;12.20;99.90
9486;DHT22;4781;48.776;9.200;2023-08-07T02:30:31;12.30;99.90
9486;DHT22;4781;48.776;9.200;2023-08-07T02:33:00;12.30;99.90
9486;DHT22;4781;48.776;9.200;2023-08-07T02:35:28;12.20;99.90
9486;DHT22;4781;48.776;9.200;2023-08-07T02:37:56;12.30;99.90
9486;DHT22;4781;48.776;9.200;2023-08-07T02:40:25;12.20;99.90
9486;DHT22;4781;48.776;9.200;2023-08-07T02:42:53;12.20;99.90
9486;DHT22;4781;48.776;9.200;2023-08-07T02:45:22;12.20;99.90
9486;DHT22;4781;48.776;9.200;2023-08-07T02:47:50;12.20;99.90
9486;DHT22;4781;48.776;9.200;2023-08-07T02:50:18;12.20;99.90
9486;DHT22;4781;48.776;9.200;2023-08-07T02:52:47;12.20;99.90
9486;DHT22;4781;48.776;9.200;2023-08-07T02:55:15;12.10;99.90
9486;DHT22;4781;48.776;9.200;2023-08-07T02:57:44;12.10;99.90
9486;DHT22;4781;48.776;9.200;2023-08-07T03:00:12;12.10;99.90
9486;DHT22;4781;48.776;9.200;2023-08-07T03:02:41;12.10;99.90
9486;DHT22;4781;48.776;9.200;2023-08-07T03:05:09;12.10;99.90
9486;DHT22;4781;48.776;9.200;2023-08-07T03:07:41;12.10;99.90
9486;DHT22;4781;48.776;9.200;2023-08-07T03:10:09;12.10;99.90
9486;DHT22;4781;48.776;9.200;2023-08-07T03:12:38;12.10;99.90
9486;DHT22;4781;48.776;9.200;2023-08-07T03:15:06;12.10;99.90
9486;DHT22;4781;48.776;9.200;2023-08-07T03:17:35;12.10;99.90
9486;DHT22;4781;48.776;9.200;2023-08-07T03:20:04;12.10;99.90
9486;DHT22;4781;48.776;9.200;2023-08-07T03:22:32;12.00;99.90
9486;DHT22;4781;48.776;9.200;2023-08-07T03:25:01;12.00;99.90
9486;DHT22;4781;48.776;9.200;2023-08-07T03:27:29;12.00;99.90
9486;DHT22;4781;48.776;9.200;2023-08-07T03:29:58;12.00;99.90
9486;DHT22;4781;48.776;9.200;2023-08-07T03:32:26;12.00;99.90
9486;DHT22;4781;48.776;9.200;2023-08-07T03:34:54;12.00;99.90
9486;DHT22;4781;48.776;9.200;2023-08-07T03:37:23;12.00;99.90
9486;DHT22;4781;48.776;9.200;2023-08-07T03:39:51;12.00;99.90
9486;DHT22;4781;48.776;9.200;2023-08-07T03:42:20;12.00;99.90
9486;DHT22;4781;48.776;9.200;2023-08-07T03:44:48;12.00;99.90
9486;DHT22;4781;48.776;9.200;2023-08-07T03:47:17;12.00;99.90
9486;DHT22;4781;48.776;9.200;2023-08-07T03:49:45;12.00;99.90
9486;DHT22;4781;48.776;9.200;2023-08-07T03:52:14;11.90;99.90
9486;DHT22;4781;48.776;9.200;2023-08-07T03:54:44;11.90;99.90
9486;DHT22;4781;48.776;9.200;2023-08-07T03:57:12;11.90;99.90
9486;DHT22;4781;48.776;9.200;2023-08-07T03:59:41;12.00;99.90
9486;DHT22;4781;48.776;9.200;2023-08-07T04:02:09;12.00;99.90
9486;DHT22;4781;48.776;9.200;2023-08-07T04:04:37;12.00;99.90
9486;DHT22;4781;48.776;9.200;2023-08-07T04:07:06;12.00;99.90
9486;DHT22;4781;48.776;9.200;2023-08-07T04:09:35;12.00;99.90
9486;DHT22;4781;48.776;9.200;2023-08-07T04:12:04;12.00;99.90
9486;DHT22;4781;48.776;9.200;2023-08-07T04:14:32;11.90;99.90
9486;DHT22;4781;48.776;9.200;2023-08-07T04:17:00;11.90;99.90
9486;DHT22;4781;48.776;9.200;2023-08-07T04:19:29;11.90;99.90
9486;DHT22;4781;48.776;9.200;2023-08-07T04:21:57;11.90;99.90
9486;DHT22;4781;48.776;9.200;2023-08-07T04:24:26;11.90;99.90
9486;DHT22;4781;48.776;9.200;2023-08-07T04:26:54;11.90;99.90
9486;DHT22;4781;48.776;9.200;2023-08-07T04:29:24;11.90;99.90
9486;DHT22;4781;48.776;9.200;2023-08-07T04:31:52;11.90;99.90
9486;DHT22;4781;48.776;9.200;2023-08-07T04:34:21;11.90;99.90
9486;DHT22;4781;48.776;9.200;2023-08-07T04:36:49;11.90;99.90
9486;DHT22;4781;48.776;9.200;2023-08-07T04:39:21;12.00;99.90
9486;DHT22;4781;48.776;9.200;2023-08-07T04:41:49;11.90;99.90
9486;DHT22;4781;48.776;9.200;2023-08-07T04:44:17;12.00;99.90
9486;DHT22;4781;48.776;9.200;2023-08-07T04:46:46;12.00;99.90
9486;DHT22;4781;48.776;9.200;2023-08-07T04:49:14;12.00;99.90
9486;DHT22;4781;48.776;9.200;2023-08-07T04:51:43;12.00;99.90
9486;DHT22;4781;48.776;9.200;2023-08-07T04:54:11;12.10;99.90
9486;DHT22;4781;48.776;9.200;2023-08-07T04:56:39;12.10;99.90
9486;DHT22;4781;48.776;9.200;2023-08-07T04:59:10;12.10;99.90
9486;DHT22;4781;48.776;9.200;2023-08-07T05:01:38;12.10;99.90
9486;DHT22;4781;48.776;9.200;2023-08-07T05:04:07;12.10;99.90
9486;DHT22;4781;48.776;9.200;2023-08-07T05:06:35;12.10;99.90
9486;DHT22;4781;48.776;9.200;2023-08-07T05:09:06;12.10;99.90
9486;DHT22;4781;48.776;9.200;2023-08-07T05:11:35;12.20;99.90
9486;DHT22;4781;48.776;9.200;2023-08-07T05:14:03;12.20;99.90
9486;DHT22;4781;48.776;9.200;2023-08-07T05:16:32;12.20;99.90
9486;DHT22;4781;48.776;9.200;2023-08-07T05:19:00;12.20;99.90
9486;DHT22;4781;48.776;9.200;2023-08-07T05:21:29;12.30;99.90
9486;DHT22;4781;48.776;9.200;2023-08-07T05:23:57;12.20;99.90
9486;DHT22;4781;48.776;9.200;2023-08-07T05:26:25;12.30;99.90
9486;DHT22;4781;48.776;9.200;2023-08-07T05:28:56;12.30;99.90
9486;DHT22;4781;48.776;9.200;2023-08-07T05:31:25;12.30;99.90
9486;DHT22;4781;48.776;9.200;2023-08-07T05:33:53;12.40;99.90
9486;DHT22;4781;48.776;9.200;2023-08-07T05:36:22;12.40;99.90
9486;DHT22;4781;48.776;9.200;2023-08-07T05:38:50;12.40;99.90
9486;DHT22;4781;48.776;9.200;2023-08-07T05:41:19;12.40;99.90
9486;DHT22;4781;48.776;9.200;2023-08-07T05:43:47;12.50;99.90
9486;DHT22;4781;48.776;9.200;2023-08-07T05:46:15;12.50;99.90
9486;DHT22;4781;48.776;9.200;2023-08-07T05:48:44;12.50;99.90
9486;DHT22;4781;48.776;9.200;2023-08-07T05:51:12;12.60;99.90
9486;DHT22;4781;48.776;9.200;2023-08-07T05:53:41;12.60;99.90
9486;DHT22;4781;48.776;9.200;2023-08-07T05:56:09;12.70;99.90
9486;DHT22;4781;48.776;9.200;2023-08-07T05:58:37;12.70;99.90
9486;DHT22;4781;48.776;9.200;2023-08-07T06:01:06;12.80;99.90
9486;DHT22;4781;48.776;9.200;2023-08-07T06:03:34;12.80;99.90
9486;DHT22;4781;48.776;9.200;2023-08-07T06:06:03;12.90;99.90
9486;DHT22;4781;48.776;9.200;2023-08-07T06:08:31;12.90;99.90
9486;DHT22;4781;48.776;9.200;2023-08-07T06:11:00;12.90;99.90
9486;DHT22;4781;48.776;9.200;2023-08-07T06:13:35;13.00;99.90
9486;DHT22;4781;48.776;9.200;2023-08-07T06:16:03;13.00;99.90
9486;DHT22;4781;48.776;9.200;2023-08-07T06:18:32;13.10;99.90
9486;DHT22;4781;48.776;9.200;2023-08-07T06:21:01;13.10;99.90
9486;DHT22;4781;48.776;9.200;2023-08-07T06:23:31;13.10;99.90
9486;DHT22;4781;48.776;9.200;2023-08-07T06:25:59;13.10;99.90
9486;DHT22;4781;48.776;9.200;2023-08-07T06:28:30;13.10;99.90
9486;DHT22;4781;48.776;9.200;2023-08-07T06:31:04;13.20;99.90
9486;DHT22;4781;48.776;9.200;2023-08-07T06:33:34;13.20;99.90
9486;DHT22;4781;48.776;9.200;2023-08-07T06:36:03;13.30;99.90
9486;DHT22;4781;48.776;9.200;2023-08-07T06:38:32;13.30;99.90
9486;DHT22;4781;48.776;9.200;2023-08-07T06:41:00;13.30;99.90
9486;DHT22;4781;48.776;9.200;2023-08-07T06:43:29;13.30;99.90
9486;DHT22;4781;48.776;9.200;2023-08-07T06:45:58;13.30;99.90
9486;DHT22;4781;48.776;9.200;2023-08-07T06:48:27;13.40;99.90
9486;DHT22;4781;48.776;9.200;2023-08-07T06:50:55;13.40;99.90
9486;DHT22;4781;48.776;9.200;2023-08-07T06:53:23;13.50;99.90
9486;DHT22;4781;48.776;9.200;2023-08-07T06:55:52;13.50;99.90
9486;DHT22;4781;48.776;9.200;2023-08-07T06:58:20;13.60;99.90
9486;DHT22;4781;48.776;9.200;2023-08-07T07:00:50;13.70;99.90
9486;DHT22;4781;48.776;9.200;2023-08-07T07:03:19;13.70;99.90
9486;DHT22;4781;48.776;9.200;2023-08-07T07:05:49;13.70;99.90
9486;DHT22;4781;48.776;9.200;2023-08-07T07:08:18;13.70;99.90
9486;DHT22;4781;48.776;9.200;2023-08-07T07:10:47;13.70;99.90
9486;DHT22;4781;48.776;9.200;2023-08-07T07:13:15;13.90;99.90
9486;DHT22;4781;48.776;9.200;2023-08-07T07:15:44;14.20;99.90
9486;DHT22;4781;48.776;9.200;2023-08-07T07:18:12;14.20;99.90
9486;DHT22;4781;48.776;9.200;2023-08-07T07:20:42;14.20;99.90
9486;DHT22;4781;48.776;9.200;2023-08-07T07:23:11;14.20;99.90
9486;DHT22;4781;48.776;9.200;2023-08-07T07:25:39;14.10;99.90
9486;DHT22;4781;48.776;9.200;2023-08-07T07:28:07;14.10;99.90
9486;DHT22;4781;48.776;9.200;2023-08-07T07:30:36;14.00;99.90
9486;DHT22;4781;48.776;9.200;2023-08-07T07:33:06;14.00;99.90
9486;DHT22;4781;48.776;9.200;2023-08-07T07:35:39;14.10;99.90
9486;DHT22;4781;48.776;9.200;2023-08-07T07:38:07;14.10;99.90
9486;DHT22;4781;48.776;9.200;2023-08-07T07:40:37;14.20;99.90
9486;DHT22;4781;48.776;9.200;2023-08-07T07:43:06;14.20;99.90
9486;DHT22;4781;48.776;9.200;2023-08-07T07:45:34;14.20;99.90
9486;DHT22;4781;48.776;9.200;2023-08-07T07:48:03;14.20;99.90
9486;DHT22;4781;48.776;9.200;2023-08-07T07:50:33;14.40;99.90
9486;DHT22;4781;48.776;9.200;2023-08-07T07:53:02;14.60;99.90
9486;DHT22;4781;48.776;9.200;2023-08-07T07:55:30;14.80;99.90
9486;DHT22;4781;48.776;9.200;2023-08-07T07:58:00;15.00;99.90
9486;DHT22;4781;48.776;9.200;2023-08-07T08:00:29;14.90;99.90
9486;DHT22;4781;48.776;9.200;2023-08-07T08:02:57;14.90;99.90
9486;DHT22;4781;48.776;9.200;2023-08-07T08:05:26;14.90;99.90
9486;DHT22;4781;48.776;9.200;2023-08-07T08:07:54;14.80;99.90
9486;DHT22;4781;48.776;9.200;2023-08-07T08:10:23;14.80;99.90
9486;DHT22;4781;48.776;9.200;2023-08-07T08:12:52;14.70;99.90
9486;DHT22;4781;48.776;9.200;2023-08-07T08:15:22;14.70;99.90
9486;DHT22;4781;48.776;9.200;2023-08-07T08:17:52;14.60;99.90
9486;DHT22;4781;48.776;9.200;2023-08-07T08:20:20;14.60;99.90
9486;DHT22;4781;48.776;9.200;2023-08-07T08:22:49;14.50;99.90
9486;DHT22;4781;48.776;9.200;2023-08-07T08:25:17;14.40;99.90
9486;DHT22;4781;48.776;9.200;2023-08-07T08:27:46;14.40;99.90
9486;DHT22;4781;48.776;9.200;2023-08-07T08:30:14;14.50;99.90
9486;DHT22;4781;48.776;9.200;2023-08-07T08:32:44;14.60;99.90
9486;DHT22;4781;48.776;9.200;2023-08-07T08:35:13;14.60;99.90
9486;DHT22;4781;48.776;9.200;2023-08-07T08:37:41;14.60;99.90
9486;DHT22;4781;48.776;9.200;2023-08-07T08:40:10;14.70;99.90
9486;DHT22;4781;48.776;9.200;2023-08-07T08:42:42;14.80;99.90
9486;DHT22;4781;48.776;9.200;2023-08-07T08:45:14;15.00;99.90
9486;DHT22;4781;48.776;9.200;2023-08-07T08:47:43;15.10;99.90
9486;DHT22;4781;48.776;9.200;2023-08-07T08:50:14;15.10;99.90
9486;DHT22;4781;48.776;9.200;2023-08-07T08:52:43;15.10;99.90
9486;DHT22;4781;48.776;9.200;2023-08-07T08:55:13;15.30;99.90
9486;DHT22;4781;48.776;9.200;2023-08-07T08:57:42;15.30;99.90
9486;DHT22;4781;48.776;9.200;2023-08-07T09:00:11;15.30;99.90
9486;DHT22;4781;48.776;9.200;2023-08-07T09:02:45;15.50;99.90
9486;DHT22;4781;48.776;9.200;2023-08-07T09:05:16;15.70;99.90
9486;DHT22;4781;48.776;9.200;2023-08-07T09:07:47;15.90;99.90
9486;DHT22;4781;48.776;9.200;2023-08-07T09:10:18;16.00;99.90
9486;DHT22;4781;48.776;9.200;2023-08-07T09:13:07;16.00;99.90
9486;DHT22;4781;48.776;9.200;2023-08-07T09:15:33;16.20;99.90
9486;DHT22;4781;48.776;9.200;2023-08-07T09:18:04;16.40;99.90
9486;DHT22;4781;48.776;9.200;2023-08-07T09:20:43;16.50;99.90
9486;DHT22;4781;48.776;9.200;2023-08-07T09:23:08;16.60;99.90
9486;DHT22;4781;48.776;9.200;2023-08-07T09:25:36;16.70;99.90
9486;DHT22;4781;48.776;9.200;2023-08-07T09:28:05;16.60;99.90
9486;DHT22;4781;48.776;9.200;2023-08-07T09:30:35;16.60;99.90
9486;DHT22;4781;48.776;9.200;2023-08-07T09:33:04;16.60;99.90
9486;DHT22;4781;48.776;9.200;2023-08-07T09:35:33;16.50;99.90
9486;DHT22;4781;48.776;9.200;2023-08-07T09:38:01;16.40;99.90
9486;DHT22;4781;48.776;9.200;2023-08-07T09:40:30;16.50;99.90
9486;DHT22;4781;48.776;9.200;2023-08-07T09:43:00;16.50;99.90
9486;DHT22;4781;48.776;9.200;2023-08-07T09:45:29;16.50;99.90
9486;DHT22;4781;48.776;9.200;2023-08-07T09:48:04;16.60;99.90
9486;DHT22;4781;48.776;9.200;2023-08-07T09:50:37;16.80;99.90
9486;DHT22;4781;48.776;9.200;2023-08-07T09:53:06;17.00;99.90
9486;DHT22;4781;48.776;9.200;2023-08-07T09:55:36;17.20;99.90
9486;DHT22;4781;48.776;9.200;2023-08-07T09:58:07;17.40;99.90
9486;DHT22;4781;48.776;9.200;2023-08-07T10:00:36;17.20;99.90
9486;DHT22;4781;48.776;9.200;2023-08-07T10:03:04;17.00;99.90
9486;DHT22;4781;48.776;9.200;2023-08-07T10:05:33;17.10;99.90
9486;DHT22;4781;48.776;9.200;2023-08-07T10:08:02;17.30;99.90
9486;DHT22;4781;48.776;9.200;2023-08-07T10:10:32;17.30;99.90
9486;DHT22;4781;48.776;9.200;2023-08-07T10:13:03;17.30;99.90
9486;DHT22;4781;48.776;9.200;2023-08-07T10:15:33;17.70;99.90
9486;DHT22;4781;48.776;9.200;2023-08-07T10:18:01;17.90;99.90
9486;DHT22;4781;48.776;9.200;2023-08-07T10:20:32;18.00;99.90
9486;DHT22;4781;48.776;9.200;2023-08-07T10:23:05;18.30;99.90
9486;DHT22;4781;48.776;9.200;2023-08-07T10:25:32;18.40;99.90
9486;DHT22;4781;48.776;9.200;2023-08-07T10:28:06;18.60;99.90
9486;DHT22;4781;48.776;9.200;2023-08-07T10:30:36;18.50;99.90
9486;DHT22;4781;48.776;9.200;2023-08-07T10:33:07;18.30;99.90
9486;DHT22;4781;48.776;9.200;2023-08-07T10:35:36;18.00;98.40
9486;DHT22;4781;48.776;9.200;2023-08-07T10:38:09;17.80;99.00
9486;DHT22;4781;48.776;9.200;2023-08-07T10:43:42;17.50;98.40
9486;DHT22;4781;48.776;9.200;2023-08-07T10:46:14;17.30;98.90
9486;DHT22;4781;48.776;9.200;2023-08-07T10:48:46;17.30;98.60
9486;DHT22;4781;48.776;9.200;2023-08-07T10:51:20;17.20;98.70
9486;DHT22;4781;48.776;9.200;2023-08-07T10:53:49;17.20;99.00
9486;DHT22;4781;48.776;9.200;2023-08-07T10:56:33;17.20;99.20
9486;DHT22;4781;48.776;9.200;2023-08-07T10:59:07;17.20;99.30
9486;DHT22;4781;48.776;9.200;2023-08-07T11:01:41;17.20;99.30
9486;DHT22;4781;48.776;9.200;2023-08-07T11:04:12;17.30;99.00
9486;DHT22;4781;48.776;9.200;2023-08-07T11:06:43;17.30;98.80
9486;DHT22;4781;48.776;9.200;2023-08-07T11:09:13;17.30;99.60
9486;DHT22;4781;48.776;9.200;2023-08-07T11:11:44;17.40;99.10
9486;DHT22;4781;48.776;9.200;2023-08-07T11:14:16;17.40;99.00
9486;DHT22;4781;48.776;9.200;2023-08-07T11:16:47;17.40;97.70
9486;DHT22;4781;48.776;9.200;2023-08-07T11:19:17;17.30;98.50
9486;DHT22;4781;48.776;9.200;2023-08-07T11:21:46;17.30;98.70
9486;DHT22;4781;48.776;9.200;2023-08-07T11:24:18;17.30;98.90
9486;DHT22;4781;48.776;9.200;2023-08-07T11:26:48;17.40;99.40
9486;DHT22;4781;48.776;9.200;2023-08-07T11:29:18;17.20;99.10
9486;DHT22;4781;48.776;9.200;2023-08-07T11:31:46;17.10;99.40
9486;DHT22;4781;48.776;9.200;2023-08-07T11:34:19;17.20;99.20
9486;DHT22;4781;48.776;9.200;2023-08-07T11:36:49;17.00;98.80
9486;DHT22;4781;48.776;9.200;2023-08-07T11:39:17;16.90;99.10
9486;DHT22;4781;48.776;9.200;2023-08-07T11:41:46;16.70;99.20
9486;DHT22;4781;48.776;9.200;2023-08-07T11:44:14;16.70;99.50
9486;DHT22;4781;48.776;9.200;2023-08-07T11:46:43;16.70;99.60
9486;DHT22;4781;48.776;9.200;2023-08-07T11:49:12;16.70;99.60
9486;DHT22;4781;48.776;9.200;2023-08-07T11:51:41;16.70;99.70
9486;DHT22;4781;48.776;9.200;2023-08-07T11:54:14;16.70;99.70
9486;DHT22;4781;48.776;9.200;2023-08-07T11:56:42;16.60;99.80
9486;DHT22;4781;48.776;9.200;2023-08-07T11:59:16;16.40;99.90
9486;DHT22;4781;48.776;9.200;2023-08-07T12:01:46;16.40;99.90
9486;DHT22;4781;48.776;9.200;2023-08-07T12:04:14;16.40;99.90
9486;DHT22;4781;48.776;9.200;2023-08-07T12:06:55;16.40;99.90
9486;DHT22;4781;48.776;9.200;2023-08-07T12:09:25;16.40;99.90
9486;DHT22;4781;48.776;9.200;2023-08-07T12:11:57;16.50;99.90
9486;DHT22;4781;48.776;9.200;2023-08-07T12:14:30;16.50;99.90
9486;DHT22;4781;48.776;9.200;2023-08-07T12:17:03;16.50;99.90
9486;DHT22;4781;48.776;9.200;2023-08-07T12:19:42;16.50;99.90
9486;DHT22;4781;48.776;9.200;2023-08-07T12:22:12;16.50;99.90
9486;DHT22;4781;48.776;9.200;2023-08-07T12:24:41;16.50;99.90
9486;DHT22;4781;48.776;9.200;2023-08-07T12:27:09;16.40;99.90
9486;DHT22;4781;48.776;9.200;2023-08-07T12:29:38;16.50;99.90
9486;DHT22;4781;48.776;9.200;2023-08-07T12:32:06;16.50;99.90
9486;DHT22;4781;48.776;9.200;2023-08-07T12:34:36;16.50;99.90
9486;DHT22;4781;48.776;9.200;2023-08-07T12:37:05;16.50;99.90
9486;DHT22;4781;48.776;9.200;2023-08-07T12:39:33;16.60;99.90
9486;DHT22;4781;48.776;9.200;2023-08-07T12:42:02;16.60;99.90
9486;DHT22;4781;48.776;9.200;2023-08-07T12:44:31;16.60;99.90
9486;DHT22;4781;48.776;9.200;2023-08-07T12:47:00;16.70;99.90
9486;DHT22;4781;48.776;9.200;2023-08-07T12:49:28;16.70;99.90
9486;DHT22;4781;48.776;9.200;2023-08-07T12:51:56;16.80;99.90
9486;DHT22;4781;48.776;9.200;2023-08-07T12:54:25;16.90;99.90
9486;DHT22;4781;48.776;9.200;2023-08-07T12:56:53;17.00;99.90
9486;DHT22;4781;48.776;9.200;2023-08-07T12:59:22;17.10;99.90
9486;DHT22;4781;48.776;9.200;2023-08-07T13:01:50;17.20;99.90
9486;DHT22;4781;48.776;9.200;2023-08-07T13:04:19;17.20;99.90
9486;DHT22;4781;48.776;9.200;2023-08-07T13:06:50;17.20;99.90
9486;DHT22;4781;48.776;9.200;2023-08-07T13:09:18;17.30;99.90
9486;DHT22;4781;48.776;9.200;2023-08-07T13:11:47;17.30;99.90
9486;DHT22;4781;48.776;9.200;2023-08-07T13:14:15;17.40;99.90
9486;DHT22;4781;48.776;9.200;2023-08-07T13:16:43;17.40;99.90
9486;DHT22;4781;48.776;9.200;2023-08-07T13:19:12;17.40;99.90
9486;DHT22;4781;48.776;9.200;2023-08-07T13:21:40;17.50;99.90
9486;DHT22;4781;48.776;9.200;2023-08-07T13:24:09;17.50;99.90
9486;DHT22;4781;48.776;9.200;2023-08-07T13:26:38;17.50;99.90
9486;DHT22;4781;48.776;9.200;2023-08-07T13:29:08;17.40;99.90
9486;DHT22;4781;48.776;9.200;2023-08-07T13:31:36;17.40;99.90
9486;DHT22;4781;48.776;9.200;2023-08-07T13:34:05;17.40;99.90
9486;DHT22;4781;48.776;9.200;2023-08-07T13:36:37;17.40;99.90
9486;DHT22;4781;48.776;9.200;2023-08-07T13:39:05;17.50;99.90
9486;DHT22;4781;48.776;9.200;2023-08-07T13:41:35;17.60;99.90
9486;DHT22;4781;48.776;9.200;2023-08-07T13:44:03;17.70;99.90
9486;DHT22;4781;48.776;9.200;2023-08-07T13:46:32;17.60;99.90
9486;DHT22;4781;48.776;9.200;2023-08-07T13:49:00;17.50;99.90
9486;DHT22;4781;48.776;9.200;2023-08-07T13:51:29;17.70;99.90
9486;DHT22;4781;48.776;9.200;2023-08-07T13:53:57;18.00;99.90
9486;DHT22;4781;48.776;9.200;2023-08-07T13:56:25;18.10;99.90
9486;DHT22;4781;48.776;9.200;2023-08-07T13:58:54;18.10;99.90
9486;DHT22;4781;48.776;9.200;2023-08-07T14:01:22;18.10;99.90
9486;DHT22;4781;48.776;9.200;2023-08-07T14:03:51;18.00;99.90
9486;DHT22;4781;48.776;9.200;2023-08-07T14:06:19;18.00;99.90
9486;DHT22;4781;48.776;9.200;2023-08-07T14:08:48;17.90;99.90
9486;DHT22;4781;48.776;9.200;2023-08-07T14:11:16;17.90;99.90
9486;DHT22;4781;48.776;9.200;2023-08-07T14:13:46;17.90;99.90
9486;DHT22;4781;48.776;9.200;2023-08-07T14:16:14;18.00;99.90
9486;DHT22;4781;48.776;9.200;2023-08-07T14:18:42;18.00;99.90
9486;DHT22;4781;48.776;9.200;2023-08-07T14:21:11;18.10;99.90
9486;DHT22;4781;48.776;9.200;2023-08-07T14:23:39;18.40;99.90
9486;DHT22;4781;48.776;9.200;2023-08-07T14:26:08;18.80;99.90
9486;DHT22;4781;48.776;9.200;2023-08-07T14:28:37;18.80;99.90
9486;DHT22;4781;48.776;9.200;2023-08-07T14:31:09;18.70;99.70
9486;DHT22;4781;48.776;9.200;2023-08-07T14:33:37;18.70;99.90
9486;DHT22;4781;48.776;9.200;2023-08-07T14:36:06;18.60;99.90
9486;DHT22;4781;48.776;9.200;2023-08-07T14:38:34;18.50;99.60
9486;DHT22;4781;48.776;9.200;2023-08-07T14:41:03;18.30;99.10
9486;DHT22;4781;48.776;9.200;2023-08-07T14:43:31;18.10;99.50
9486;DHT22;4781;48.776;9.200;2023-08-07T14:46:00;18.20;99.90
9486;DHT22;4781;48.776;9.200;2023-08-07T14:48:28;18.50;99.90
9486;DHT22;4781;48.776;9.200;2023-08-07T14:50:56;18.80;99.90
9486;DHT22;4781;48.776;9.200;2023-08-07T14:53:25;18.90;99.70
9486;DHT22;4781;48.776;9.200;2023-08-07T14:55:54;18.90;99.80
9486;DHT22;4781;48.776;9.200;2023-08-07T14:58:23;19.10;99.70
9486;DHT22;4781;48.776;9.200;2023-08-07T15:00:55;19.30;99.90
9486;DHT22;4781;48.776;9.200;2023-08-07T15:03:24;19.50;99.90
9486;DHT22;4781;48.776;9.200;2023-08-07T15:05:52;19.70;99.90
9486;DHT22;4781;48.776;9.200;2023-08-07T15:08:20;19.70;99.30
9486;DHT22;4781;48.776;9.200;2023-08-07T15:10:51;19.70;98.40
9486;DHT22;4781;48.776;9.200;2023-08-07T15:13:19;19.50;97.70
9486;DHT22;4781;48.776;9.200;2023-08-07T15:15:48;19.20;97.00
9486;DHT22;4781;48.776;9.200;2023-08-07T15:18:16;19.00;97.10
9486;DHT22;4781;48.776;9.200;2023-08-07T15:20:47;18.90;98.00
9486;DHT22;4781;48.776;9.200;2023-08-07T15:23:15;18.80;98.00
9486;DHT22;4781;48.776;9.200;2023-08-07T15:25:44;18.70;97.70
9486;DHT22;4781;48.776;9.200;2023-08-07T15:28:12;18.70;98.10
9486;DHT22;4781;48.776;9.200;2023-08-07T15:30:49;18.60;98.30
9486;DHT22;4781;48.776;9.200;2023-08-07T15:33:18;18.60;98.60
9486;DHT22;4781;48.776;9.200;2023-08-07T15:35:46;18.60;98.60
9486;DHT22;4781;48.776;9.200;2023-08-07T15:38:14;18.60;98.40
9486;DHT22;4781;48.776;9.200;2023-08-07T15:40:43;18.40;98.50
9486;DHT22;4781;48.776;9.200;2023-08-07T15:43:11;18.40;98.70
9486;DHT22;4781;48.776;9.200;2023-08-07T15:45:40;18.40;98.70
9486;DHT22;4781;48.776;9.200;2023-08-07T15:48:08;18.50;99.30
9486;DHT22;4781;48.776;9.200;2023-08-07T15:50:37;18.50;98.90
9486;DHT22;4781;48.776;9.200;2023-08-07T15:53:06;18.60;99.20
9486;DHT22;4781;48.776;9.200;2023-08-07T15:55:34;18.80;99.60
9486;DHT22;4781;48.776;9.200;2023-08-07T15:58:05;19.00;99.20
9486;DHT22;4781;48.776;9.200;2023-08-07T16:00:35;19.00;98.30
9486;DHT22;4781;48.776;9.200;2023-08-07T16:03:04;19.00;97.50
9486;DHT22;4781;48.776;9.200;2023-08-07T16:05:36;18.80;97.80
9486;DHT22;4781;48.776;9.200;2023-08-07T16:08:05;18.80;97.90
9486;DHT22;4781;48.776;9.200;2023-08-07T16:10:34;18.60;97.10
9486;DHT22;4781;48.776;9.200;2023-08-07T16:13:04;18.60;97.80
9486;DHT22;4781;48.776;9.200;2023-08-07T16:15:33;18.70;98.00
9486;DHT22;4781;48.776;9.200;2023-08-07T16:18:02;18.70;98.00